Time;durP1;ratioP1;P1;durP2;ratioP2;P2;SDS_P1;SDS_P2;PMS_P1;PMS_P2;Temp;Humidity;BMP_temperature;BMP_pressure;BME280_temperature;BME280_humidity;BME280_pressure;Samples;Min_cycle;Max_cycle;Signal;HPM_P1;HPM_P2
2022/08/03 00:00:34;;;;;;;5.60;5.10;;;21.70;99.00;;;;;;4982897;28;20464;-80
2022/08/03 00:03:02;;;;;;;6.40;5.80;;;21.70;99.00;;;;;;4999702;28;20505;-79
2022/08/03 00:05:32;;;;;;;6.67;5.20;;;21.70;99.30;;;;;;4982920;28;20492;-78
2022/08/03 00:08:00;;;;;;;5.30;4.80;;;21.70;99.10;;;;;;4982914;28;20453;-78
2022/08/03 00:10:30;;;;;;;5.77;5.27;;;21.60;99.10;;;;;;4982635;28;20444;-79
2022/08/03 00:12:58;;;;;;;6.03;5.43;;;21.60;99.20;;;;;;5002994;28;20410;-80
2022/08/03 00:15:27;;;;;;;5.40;4.90;;;21.60;99.20;;;;;;4978359;28;20442;-80
2022/08/03 00:17:55;;;;;;;7.30;5.30;;;21.50;99.20;;;;;;4972504;28;20476;-81
2022/08/03 00:20:23;;;;;;;5.87;5.20;;;21.50;99.30;;;;;;4972517;28;20457;-80
2022/08/03 00:22:51;;;;;;;6.20;5.60;;;21.50;99.30;;;;;;4989147;28;20576;-81
2022/08/03 00:25:20;;;;;;;6.63;6.03;;;21.40;99.30;;;;;;4968713;28;20470;-80
2022/08/03 00:27:49;;;;;;;6.90;5.70;;;21.40;99.30;;;;;;4985865;28;20814;-81
2022/08/03 00:30:18;;;;;;;6.00;5.50;;;21.40;99.40;;;;;;4967357;28;20548;-80
2022/08/03 00:32:46;;;;;;;9.10;5.57;;;21.30;99.40;;;;;;4982150;28;20854;-80
2022/08/03 00:35:15;;;;;;;6.43;5.57;;;21.30;99.50;;;;;;4961860;28;20473;-80
2022/08/03 00:38:03;;;;;;;5.73;5.23;;;21.30;99.50;;;;;;4979953;28;20493;-80
2022/08/03 00:40:32;;;;;;;6.10;5.60;;;21.30;99.60;;;;;;4961965;28;20504;-80
2022/08/03 00:43:03;;;;;;;7.63;6.87;;;21.20;99.70;;;;;;4961994;28;20830;-80
2022/08/03 00:45:33;;;;;;;6.60;6.00;;;21.20;99.80;;;;;;4961730;28;20449;-81
2022/08/03 00:48:02;;;;;;;5.67;5.13;;;21.20;99.80;;;;;;4961954;28;20818;-80
2022/08/03 00:50:33;;;;;;;5.90;5.40;;;21.20;99.80;;;;;;4962159;28;20454;-80
2022/08/03 00:53:04;;;;;;;6.80;5.10;;;21.10;99.80;;;;;;4980984;28;20437;-80
2022/08/03 00:55:33;;;;;;;5.03;4.63;;;21.10;99.90;;;;;;4979248;28;20433;-80
2022/08/03 00:58:05;;;;;;;5.90;5.17;;;21.10;99.90;;;;;;4961579;28;20837;-80
2022/08/03 01:00:37;;;;;;;6.03;5.53;;;21.00;99.90;;;;;;4979077;28;20441;-80
2022/08/03 01:03:06;;;;;;;6.30;5.80;;;21.00;99.90;;;;;;4961889;28;20441;-80
2022/08/03 01:05:42;;;;;;;5.80;5.20;;;21.00;99.90;;;;;;4979455;28;20947;-80
2022/08/03 01:08:19;;;;;;;5.70;5.20;;;20.90;99.90;;;;;;4979564;28;20906;-80
2022/08/03 01:10:58;;;;;;;5.73;5.23;;;20.90;99.90;;;;;;4979975;28;20430;-79
2022/08/03 01:13:36;;;;;;;5.30;4.83;;;20.90;99.90;;;;;;4962591;28;20477;-80
2022/08/03 01:16:31;;;;;;;6.80;6.20;;;20.90;99.90;;;;;;4962281;28;20442;-80
2022/08/03 01:19:24;;;;;;;6.20;5.60;;;20.90;99.90;;;;;;4962314;28;20814;-80
2022/08/03 01:22:04;;;;;;;6.00;5.50;;;20.80;99.90;;;;;;4979153;28;20430;-80
2022/08/03 01:24:44;;;;;;;6.83;6.23;;;20.80;99.90;;;;;;4961735;28;20466;-80
2022/08/03 01:27:17;;;;;;;6.07;5.57;;;20.70;99.90;;;;;;4961380;28;20509;-80
2022/08/03 01:30:00;;;;;;;6.43;5.83;;;20.70;99.90;;;;;;4961508;28;20442;-80
2022/08/03 01:32:52;;;;;;;5.57;5.10;;;20.70;99.90;;;;;;4978765;28;20426;-80
2022/08/03 01:35:34;;;;;;;6.27;5.67;;;20.70;99.90;;;;;;4961371;28;20458;-80
2022/08/03 01:38:11;;;;;;;6.80;6.20;;;20.60;99.90;;;;;;4978635;28;20431;-80
2022/08/03 01:40:41;;;;;;;7.13;6.43;;;20.60;99.90;;;;;;4961264;28;20924;-80
2022/08/03 01:43:13;;;;;;;6.53;5.93;;;20.60;99.90;;;;;;4978322;28;20445;-80
2022/08/03 01:46:04;;;;;;;7.37;5.70;;;20.60;99.90;;;;;;4979341;28;20437;-80
2022/08/03 01:48:33;;;;;;;6.73;5.83;;;20.50;99.90;;;;;;4963425;28;20456;-81
2022/08/03 01:51:01;;;;;;;7.30;5.80;;;20.50;99.90;;;;;;4979010;28;20472;-80
2022/08/03 01:53:32;;;;;;;7.27;6.67;;;20.50;99.90;;;;;;4978156;28;20533;-80
2022/08/03 01:56:03;;;;;;;6.47;5.80;;;20.50;99.90;;;;;;4978788;28;20964;-80
2022/08/03 01:58:34;;;;;;;6.10;5.40;;;20.40;99.90;;;;;;4960826;28;20453;-80
2022/08/03 02:01:05;;;;;;;7.37;6.77;;;20.40;99.90;;;;;;4960281;28;20461;-80
2022/08/03 02:03:36;;;;;;;7.13;6.53;;;20.40;99.90;;;;;;4977745;28;20470;-80
2022/08/03 02:06:26;;;;;;;10.10;7.30;;;20.30;99.90;;;;;;4961058;28;20470;-80
2022/08/03 02:09:16;;;;;;;6.70;6.20;;;20.30;99.90;;;;;;4978752;28;20440;-80
2022/08/03 02:11:46;;;;;;;7.93;7.23;;;20.30;99.90;;;;;;4960659;28;20492;-80
2022/08/03 02:14:16;;;;;;;6.43;5.93;;;20.30;99.90;;;;;;4978371;28;20800;-80
2022/08/03 02:16:46;;;;;;;6.70;6.10;;;20.30;99.90;;;;;;4960840;28;20452;-80
2022/08/03 02:19:16;;;;;;;7.50;5.77;;;20.20;99.90;;;;;;4978369;28;20445;-80
2022/08/03 02:21:46;;;;;;;6.80;6.20;;;20.20;99.90;;;;;;4978017;28;20536;-80
2022/08/03 02:24:28;;;;;;;6.37;5.53;;;20.20;99.90;;;;;;4977776;28;20457;-80
2022/08/03 02:26:57;;;;;;;7.80;6.23;;;20.10;99.90;;;;;;4977935;28;20560;-80
2022/08/03 02:29:27;;;;;;;6.90;6.30;;;20.20;99.90;;;;;;4960468;28;20456;-80
2022/08/03 02:32:14;;;;;;;6.57;6.00;;;20.10;99.90;;;;;;4960234;28;20442;-80
2022/08/03 02:34:47;;;;;;;7.00;6.40;;;20.10;99.90;;;;;;4976425;28;20453;-80
2022/08/03 02:37:19;;;;;;;6.83;6.23;;;20.10;99.90;;;;;;4961087;28;20476;-80
2022/08/03 02:39:52;;;;;;;7.10;6.50;;;20.10;99.90;;;;;;4973769;23;20525;-79
2022/08/03 02:42:24;;;;;;;6.63;6.03;;;20.00;99.90;;;;;;4960959;28;20539;-79
2022/08/03 02:44:55;;;;;;;7.23;6.53;;;20.00;99.90;;;;;;4978191;28;21022;-79
2022/08/03 02:47:27;;;;;;;6.87;6.17;;;20.00;99.90;;;;;;4978598;28;20469;-79
2022/08/03 02:50:17;;;;;;;6.77;6.17;;;20.00;99.90;;;;;;4980225;28;20437;-79
2022/08/03 02:52:46;;;;;;;7.40;6.80;;;19.90;99.90;;;;;;4980278;28;20508;-80
2022/08/03 02:55:17;;;;;;;7.03;6.43;;;19.90;99.90;;;;;;4962247;28;20465;-80
2022/08/03 02:57:47;;;;;;;7.60;6.90;;;19.90;99.90;;;;;;4979749;28;20441;-80
2022/08/03 03:00:16;;;;;;;6.23;5.63;;;19.90;99.90;;;;;;4962515;28;20469;-80
2022/08/03 03:02:58;;;;;;;6.97;6.37;;;19.80;99.90;;;;;;4963265;28;20880;-80
2022/08/03 03:05:28;;;;;;;9.07;8.23;;;19.80;99.90;;;;;;4962881;28;20867;-80
2022/08/03 03:08:20;;;;;;;11.63;10.53;;;19.80;99.90;;;;;;4962502;28;20469;-79
2022/08/03 03:10:55;;;;;;;9.07;8.27;;;19.70;99.90;;;;;;4979420;28;20425;-79
2022/08/03 03:13:24;;;;;;;11.77;8.90;;;19.70;99.90;;;;;;4979382;28;20465;-80
2022/08/03 03:15:54;;;;;;;12.77;10.90;;;19.70;99.90;;;;;;4979941;28;20805;-80
2022/08/03 03:18:24;;;;;;;12.00;10.87;;;19.70;99.90;;;;;;4962649;28;20450;-79
2022/08/03 03:20:53;;;;;;;11.10;10.00;;;19.70;99.90;;;;;;4979853;28;20915;-80
2022/08/03 03:23:22;;;;;;;10.50;9.30;;;19.60;99.90;;;;;;4962501;28;20473;-80
2022/08/03 03:25:54;;;;;;;11.90;10.70;;;19.60;99.90;;;;;;4964071;28;20481;-80
2022/08/03 03:28:24;;;;;;;13.50;12.20;;;19.60;99.90;;;;;;4964848;28;20469;-80
2022/08/03 03:30:52;;;;;;;10.43;9.33;;;19.60;99.90;;;;;;4962483;28;20470;-80
2022/08/03 03:33:21;;;;;;;10.60;9.50;;;19.60;99.90;;;;;;4978744;28;20516;-79
2022/08/03 03:35:51;;;;;;;7.97;7.27;;;19.60;99.90;;;;;;4978694;28;20452;-79
2022/08/03 03:38:20;;;;;;;8.20;7.33;;;19.60;99.90;;;;;;4960777;28;20504;-80
2022/08/03 03:40:49;;;;;;;7.57;6.73;;;19.50;99.90;;;;;;4979107;28;20700;-79
2022/08/03 03:43:18;;;;;;;7.47;6.77;;;19.50;99.90;;;;;;4960697;28;20450;-79
2022/08/03 03:45:47;;;;;;;8.03;6.90;;;19.50;99.90;;;;;;4961110;28;20477;-79
2022/08/03 03:48:16;;;;;;;8.33;7.40;;;19.40;99.90;;;;;;4978277;28;20565;-79
2022/08/03 03:50:45;;;;;;;13.63;12.20;;;19.40;99.90;;;;;;4977448;28;20442;-79
2022/08/03 03:53:14;;;;;;;13.40;12.10;;;19.40;99.90;;;;;;4959441;28;20449;-79
2022/08/03 03:55:43;;;;;;;9.97;8.97;;;19.40;99.90;;;;;;4959590;28;20469;-79
2022/08/03 03:58:30;;;;;;;8.37;7.63;;;19.40;99.90;;;;;;4960874;28;20441;-79
2022/08/03 04:00:58;;;;;;;9.30;8.40;;;19.40;99.90;;;;;;4961163;28;20446;-79
2022/08/03 04:03:27;;;;;;;11.13;9.70;;;19.40;99.90;;;;;;4978326;28;20879;-79
2022/08/03 04:11:45;;;;;;;8.10;7.40;;;19.40;99.90;;;;;;4921264;29;20954;-79
2022/08/03 04:14:17;;;;;;;8.13;7.43;;;19.40;99.90;;;;;;4956966;28;20520;-79
2022/08/03 04:16:49;;;;;;;7.23;6.63;;;19.40;99.90;;;;;;4961177;28;20437;-79
2022/08/03 04:19:24;;;;;;;7.67;7.00;;;19.30;99.90;;;;;;4977453;28;20466;-79
2022/08/03 04:21:55;;;;;;;9.07;7.10;;;19.30;99.90;;;;;;4960556;28;20533;-78
2022/08/03 04:24:29;;;;;;;7.40;6.70;;;19.30;99.90;;;;;;4960057;28;20473;-79
2022/08/03 04:26:59;;;;;;;8.93;8.03;;;19.30;99.90;;;;;;4960258;28;20441;-78
2022/08/03 04:29:31;;;;;;;13.93;12.37;;;19.40;99.90;;;;;;4978119;28;20516;-79
2022/08/03 04:32:01;;;;;;;10.07;8.83;;;19.30;99.90;;;;;;4960540;28;20990;-79
2022/08/03 04:34:30;;;;;;;9.70;8.90;;;19.30;99.90;;;;;;4959619;28;20498;-79
2022/08/03 04:37:01;;;;;;;9.80;8.90;;;19.30;99.90;;;;;;4959428;28;20437;-79
2022/08/03 04:39:32;;;;;;;9.80;8.80;;;19.30;99.90;;;;;;4977100;28;20458;-79
2022/08/03 04:42:04;;;;;;;10.40;9.30;;;19.30;99.90;;;;;;4976704;28;20453;-79
2022/08/03 04:44:39;;;;;;;9.63;8.70;;;19.30;99.90;;;;;;4976849;28;20970;-79
2022/08/03 04:47:07;;;;;;;9.00;8.20;;;19.30;99.90;;;;;;4977817;28;20525;-79
2022/08/03 04:49:37;;;;;;;7.70;7.00;;;19.40;99.90;;;;;;4960148;28;20469;-79
2022/08/03 04:52:08;;;;;;;9.23;8.33;;;19.40;99.90;;;;;;4959556;28;20449;-79
2022/08/03 04:54:43;;;;;;;8.33;7.63;;;19.40;99.90;;;;;;4960321;28;20572;-79
2022/08/03 04:57:18;;;;;;;8.80;7.90;;;19.40;99.90;;;;;;4961751;28;20450;-78
2022/08/03 04:59:53;;;;;;;8.43;7.73;;;19.40;99.90;;;;;;4981840;28;20422;-78
2022/08/03 05:02:30;;;;;;;8.33;7.63;;;19.40;99.90;;;;;;4963914;28;20446;-78
2022/08/03 05:04:58;;;;;;;8.67;7.87;;;19.40;99.90;;;;;;4962104;28;20477;-78
2022/08/03 05:07:30;;;;;;;8.30;7.50;;;19.40;99.90;;;;;;4962608;28;20982;-79
2022/08/03 05:10:07;;;;;;;8.67;7.87;;;19.50;99.90;;;;;;4980766;28;20518;-79
2022/08/03 05:12:45;;;;;;;9.47;8.60;;;19.50;99.90;;;;;;4963085;28;20469;-78
2022/08/03 05:15:14;;;;;;;10.40;9.50;;;19.50;99.90;;;;;;4963473;28;20501;-79
2022/08/03 05:17:43;;;;;;;9.47;8.57;;;19.60;99.90;;;;;;4965444;28;20454;-79
2022/08/03 05:20:12;;;;;;;10.20;9.20;;;19.60;99.90;;;;;;4973701;28;20457;-78
2022/08/03 05:22:43;;;;;;;8.93;8.10;;;19.60;99.90;;;;;;4998888;28;20429;-79
2022/08/03 05:25:13;;;;;;;9.60;8.70;;;19.60;99.90;;;;;;4977851;28;20545;-79
2022/08/03 05:27:47;;;;;;;9.37;8.47;;;19.70;99.90;;;;;;4973324;28;20484;-77
2022/08/03 05:30:16;;;;;;;8.77;7.97;;;19.70;99.90;;;;;;4987773;28;20445;-78
2022/08/03 05:33:01;;;;;;;10.23;9.23;;;19.80;99.90;;;;;;4970151;28;20468;-78
2022/08/03 05:35:29;;;;;;;9.40;8.40;;;19.80;99.90;;;;;;4994433;28;20438;-78
2022/08/03 05:38:17;;;;;;;9.60;8.70;;;19.90;99.90;;;;;;4967673;28;20520;-79
2022/08/03 05:40:57;;;;;;;10.43;9.33;;;19.90;99.90;;;;;;4969430;28;20446;-79
2022/08/03 05:43:46;;;;;;;9.47;8.67;;;19.90;99.90;;;;;;4986671;28;20478;-82
2022/08/03 05:46:15;;;;;;;9.33;8.43;;;20.00;99.90;;;;;;4964642;28;20472;-81
2022/08/03 05:48:43;;;;;;;12.93;11.70;;;20.10;99.90;;;;;;4962504;28;20841;-81
2022/08/03 05:51:12;;;;;;;9.30;8.50;;;20.10;99.90;;;;;;4962337;28;20461;-81
2022/08/03 05:53:41;;;;;;;10.63;9.57;;;20.20;99.90;;;;;;4963099;28;20509;-81
2022/08/03 05:56:11;;;;;;;11.97;10.87;;;20.30;99.90;;;;;;4964436;28;20513;-82
2022/08/03 05:58:43;;;;;;;14.23;10.27;;;20.50;99.90;;;;;;4963717;28;20442;-78
2022/08/03 06:01:11;;;;;;;10.77;9.73;;;20.60;99.90;;;;;;4965128;28;20536;-78
2022/08/03 06:03:40;;;;;;;11.27;10.17;;;20.80;99.90;;;;;;4965071;28;20477;-79
2022/08/03 06:06:08;;;;;;;10.80;9.90;;;21.00;99.90;;;;;;4964398;28;20445;-80
2022/08/03 06:08:37;;;;;;;10.47;9.47;;;21.30;99.90;;;;;;4962916;28;20480;-79
2022/08/03 06:11:05;;;;;;;11.37;9.73;;;21.50;99.90;;;;;;4981240;28;20436;-80
2022/08/03 06:13:35;;;;;;;10.80;9.70;;;21.80;99.90;;;;;;4963505;28;20505;-78
2022/08/03 06:16:04;;;;;;;10.93;9.93;;;22.10;99.90;;;;;;4979705;28;20422;-79
2022/08/03 06:18:33;;;;;;;12.70;9.10;;;22.30;99.90;;;;;;4960815;28;20449;-77
2022/08/03 06:21:01;;;;;;;10.33;9.43;;;22.60;99.90;;;;;;4960167;28;20492;-77
2022/08/03 06:23:43;;;;;;;9.57;8.70;;;22.90;99.90;;;;;;4960893;28;20569;-78
2022/08/03 06:26:26;;;;;;;9.83;8.93;;;23.20;99.90;;;;;;4963792;28;20471;-78
2022/08/03 06:28:56;;;;;;;10.13;9.23;;;23.50;99.90;;;;;;4960599;28;20470;-78
2022/08/03 06:31:28;;;;;;;9.40;8.50;;;23.70;99.90;;;;;;4977850;28;20442;-79
2022/08/03 06:34:02;;;;;;;9.93;8.93;;;24.00;99.90;;;;;;4981186;28;20465;-78
2022/08/03 06:36:51;;;;;;;9.10;8.20;;;24.20;99.90;;;;;;4962220;28;20442;-78
2022/08/03 06:39:21;;;;;;;9.90;8.70;;;24.50;99.90;;;;;;4964311;28;20484;-78
2022/08/03 06:42:01;;;;;;;8.40;7.60;;;24.70;99.90;;;;;;4982426;28;20501;-78
2022/08/03 06:44:30;;;;;;;13.20;8.10;;;24.90;99.90;;;;;;4967377;28;20567;-79
2022/08/03 06:46:58;;;;;;;8.13;7.27;;;25.10;99.90;;;;;;4983330;28;20536;-80
2022/08/03 06:49:27;;;;;;;9.17;7.40;;;25.30;99.90;;;;;;4980906;28;20469;-81
2022/08/03 06:51:56;;;;;;;7.30;6.60;;;25.60;99.90;;;;;;4981086;28;20977;-80
2022/08/03 06:54:35;;;;;;;6.10;5.50;;;25.80;99.90;;;;;;4981770;28;21005;-80
2022/08/03 06:57:04;;;;;;;5.47;4.80;;;26.00;99.90;;;;;;4981359;28;20437;-80
2022/08/03 06:59:33;;;;;;;6.17;4.40;;;26.20;99.90;;;;;;4963837;28;20522;-81
2022/08/03 07:02:21;;;;;;;7.37;4.90;;;26.40;99.90;;;;;;4963415;28;20442;-80
2022/08/03 07:04:50;;;;;;;9.47;4.77;;;26.60;99.90;;;;;;4980729;28;20557;-80
2022/08/03 07:07:19;;;;;;;6.53;4.13;;;26.80;99.90;;;;;;4962538;28;20457;-80
2022/08/03 07:09:48;;;;;;;6.90;5.07;;;26.90;99.90;;;;;;4962853;28;20484;-81
2022/08/03 07:12:26;;;;;;;6.43;3.90;;;27.10;99.90;;;;;;4980746;28;20448;-82
2022/08/03 07:14:57;;;;;;;7.77;4.30;;;27.20;99.90;;;;;;4980481;28;20478;-80
2022/08/03 07:17:30;;;;;;;5.80;4.40;;;27.30;99.90;;;;;;4963340;28;20804;-80
2022/08/03 07:19:58;;;;;;;5.17;3.80;;;27.40;99.90;;;;;;4979733;28;20438;-80
2022/08/03 07:22:27;;;;;;;4.60;3.47;;;27.50;99.90;;;;;;4983178;28;20437;-81
2022/08/03 07:24:56;;;;;;;7.47;3.83;;;27.50;99.90;;;;;;4963717;28;20477;-81
2022/08/03 07:27:27;;;;;;;5.50;4.30;;;27.60;99.90;;;;;;4962106;28;20508;-80
2022/08/03 07:29:57;;;;;;;5.03;3.53;;;27.70;99.90;;;;;;4961676;28;20468;-81
2022/08/03 07:32:27;;;;;;;5.50;3.60;;;27.80;99.90;;;;;;4960731;28;20489;-81
2022/08/03 07:34:55;;;;;;;7.30;3.90;;;27.80;99.90;;;;;;4977164;28;20493;-80
2022/08/03 07:37:29;;;;;;;7.70;4.40;;;27.80;99.90;;;;;;4959798;28;20449;-80
2022/08/03 07:39:58;;;;;;;7.13;4.03;;;27.80;99.90;;;;;;4976319;28;20454;-81
2022/08/03 07:42:26;;;;;;;6.93;4.80;;;27.80;99.90;;;;;;4959952;28;20784;-81
2022/08/03 07:44:57;;;;;;;5.77;4.33;;;27.90;99.90;;;;;;4959582;28;20480;-81
2022/08/03 07:47:27;;;;;;;8.00;5.10;;;27.90;99.90;;;;;;4959206;28;20438;-81
2022/08/03 07:50:04;;;;;;;6.60;4.50;;;27.90;99.90;;;;;;4976289;28;20453;-80
2022/08/03 07:52:48;;;;;;;5.80;3.73;;;27.80;99.90;;;;;;4975973;28;20796;-79
2022/08/03 07:55:16;;;;;;;4.93;3.77;;;27.80;99.90;;;;;;4958055;28;20504;-80
2022/08/03 07:57:45;;;;;;;8.20;3.70;;;27.80;99.90;;;;;;4976415;28;20446;-80
2022/08/03 08:00:17;;;;;;;7.40;4.20;;;27.80;99.90;;;;;;4958679;28;21005;-81
2022/08/03 08:02:45;;;;;;;6.40;3.80;;;27.80;99.90;;;;;;4976646;28;20426;-81
2022/08/03 08:05:14;;;;;;;7.57;4.30;;;27.80;99.90;;;;;;4960665;28;20488;-81
2022/08/03 08:07:42;;;;;;;7.87;5.00;;;27.90;99.90;;;;;;4960262;28;20454;-82
2022/08/03 08:10:10;;;;;;;5.77;4.63;;;27.90;99.90;;;;;;4960206;28;20477;-82
2022/08/03 08:12:40;;;;;;;7.20;3.60;;;27.90;99.80;;;;;;4978038;28;21015;-82
2022/08/03 08:15:09;;;;;;;8.10;4.80;;;27.90;99.70;;;;;;4960522;28;20469;-81
2022/08/03 08:17:47;;;;;;;6.30;4.03;;;27.90;99.60;;;;;;4960965;28;20454;-82
2022/08/03 08:20:17;;;;;;;6.70;3.83;;;27.90;99.50;;;;;;4960353;28;21001;-82
2022/08/03 08:22:56;;;;;;;4.80;3.67;;;27.80;99.50;;;;;;4961536;28;20441;-81
2022/08/03 08:25:25;;;;;;;6.20;4.10;;;27.90;99.60;;;;;;4960371;28;20512;-82
2022/08/03 08:27:54;;;;;;;5.37;4.10;;;27.90;99.50;;;;;;4959965;28;20456;-82
2022/08/03 08:30:42;;;;;;;8.67;5.33;;;27.90;99.40;;;;;;4977632;28;21033;-82
2022/08/03 08:33:12;;;;;;;6.23;3.70;;;27.80;99.30;;;;;;4979503;28;20448;-80
2022/08/03 08:35:52;;;;;;;6.00;4.47;;;27.90;99.30;;;;;;4963364;28;20481;-82
2022/08/03 08:38:20;;;;;;;6.47;3.50;;;27.90;99.30;;;;;;4982158;28;20449;-81
2022/08/03 08:40:59;;;;;;;7.13;4.03;;;27.90;99.40;;;;;;4999304;28;20436;-80
2022/08/03 08:43:28;;;;;;;6.53;3.33;;;28.00;99.30;;;;;;5000974;28;20453;-80
2022/08/03 08:45:58;;;;;;;6.70;3.70;;;28.10;99.20;;;;;;5000513;28;20441;-81
2022/08/03 08:48:30;;;;;;;5.63;3.77;;;28.20;99.30;;;;;;5002163;28;20433;-81
2022/08/03 08:51:00;;;;;;;5.13;3.63;;;28.20;99.10;;;;;;4981256;28;20477;-81
2022/08/03 08:53:31;;;;;;;6.60;4.13;;;28.30;99.00;;;;;;4985919;28;20458;-79
2022/08/03 08:56:02;;;;;;;4.90;3.30;;;28.30;98.90;;;;;;4984827;28;20426;-79
2022/08/03 08:58:34;;;;;;;11.43;3.30;;;28.40;98.80;;;;;;4974332;28;20530;-80
2022/08/03 09:01:02;;;;;;;6.93;3.37;;;28.40;98.80;;;;;;4992107;28;20436;-80
2022/08/03 09:03:34;;;;;;;6.00;3.10;;;28.40;98.80;;;;;;4974063;28;20476;-80
2022/08/03 09:06:03;;;;;;;4.57;3.10;;;28.50;98.80;;;;;;4964416;28;20442;-80
2022/08/03 09:08:32;;;;;;;5.10;3.13;;;28.60;98.70;;;;;;4963047;28;20508;-81
2022/08/03 09:11:00;;;;;;;5.00;3.17;;;28.60;98.70;;;;;;4962918;28;20476;-81
2022/08/03 09:13:29;;;;;;;5.03;2.80;;;28.70;98.70;;;;;;4963408;28;20870;-81
2022/08/03 09:16:17;;;;;;;8.10;3.10;;;28.70;98.60;;;;;;4980796;28;20452;-80
2022/08/03 09:18:48;;;;;;;7.73;2.80;;;28.80;98.40;;;;;;4962940;28;20449;-81
2022/08/03 09:21:21;;;;;;;3.67;2.60;;;28.90;98.40;;;;;;4980168;28;20840;-82
2022/08/03 09:24:02;;;;;;;10.67;3.37;;;29.00;98.40;;;;;;4963327;28;20476;-81
2022/08/03 09:26:34;;;;;;;4.30;2.67;;;29.00;98.20;;;;;;4963150;28;20458;-82
2022/08/03 09:29:06;;;;;;;5.30;2.70;;;29.00;98.10;;;;;;4962911;28;20445;-81
2022/08/03 09:31:42;;;;;;;5.97;3.00;;;29.10;98.00;;;;;;4961945;28;20469;-81
2022/08/03 09:34:16;;;;;;;4.73;3.03;;;29.20;97.90;;;;;;4962380;28;20477;-81
2022/08/03 09:36:45;;;;;;;4.50;3.10;;;29.20;97.60;;;;;;4979368;28;20430;-80
2022/08/03 09:39:15;;;;;;;4.37;2.90;;;29.20;97.60;;;;;;4961896;28;20465;-81
2022/08/03 09:41:46;;;;;;;5.60;2.67;;;29.20;97.40;;;;;;4962311;28;20541;-81
2022/08/03 09:44:14;;;;;;;4.60;2.80;;;29.20;97.70;;;;;;4961360;28;20479;-81
2022/08/03 09:46:54;;;;;;;3.93;3.03;;;29.20;97.20;;;;;;4980458;28;20438;-81
2022/08/03 09:49:25;;;;;;;5.53;2.80;;;29.30;97.10;;;;;;4980329;28;20437;-82
2022/08/03 09:51:54;;;;;;;4.23;3.33;;;29.40;97.00;;;;;;4961866;28;20994;-81
2022/08/03 09:54:44;;;;;;;5.77;2.97;;;29.40;96.80;;;;;;4978969;28;20469;-82
2022/08/03 09:57:22;;;;;;;4.67;2.70;;;29.40;96.70;;;;;;4966241;28;20508;-82
2022/08/03 09:59:51;;;;;;;4.40;2.57;;;29.40;96.50;;;;;;4961775;28;20923;-83
2022/08/03 10:02:40;;;;;;;5.10;3.07;;;29.40;96.40;;;;;;4979476;28;20420;-83
2022/08/03 10:05:11;;;;;;;7.03;3.20;;;29.40;96.40;;;;;;4966256;28;20868;-84
2022/08/03 10:07:49;;;;;;;4.77;3.07;;;29.50;96.50;;;;;;4978787;28;20990;-83
2022/08/03 10:10:18;;;;;;;6.53;3.53;;;29.50;96.40;;;;;;4984887;28;20481;-83
2022/08/03 10:13:00;;;;;;;5.60;3.33;;;29.60;96.30;;;;;;4986889;28;20433;-83
2022/08/03 10:15:29;;;;;;;6.33;3.50;;;29.60;96.10;;;;;;4970062;28;20978;-84
2022/08/03 10:18:17;;;;;;;5.50;2.90;;;29.70;96.00;;;;;;4971984;28;20540;-84
2022/08/03 10:20:52;;;;;;;7.30;3.40;;;29.70;95.90;;;;;;4969003;28;20509;-83
2022/08/03 10:23:23;;;;;;;8.17;2.70;;;29.70;95.60;;;;;;4968415;28;20446;-83
2022/08/03 10:26:01;;;;;;;7.87;3.57;;;29.70;95.60;;;;;;4966683;28;20917;-83
2022/08/03 10:28:36;;;;;;;8.90;2.90;;;29.70;95.50;;;;;;4965650;28;20442;-83
2022/08/03 10:31:13;;;;;;;6.20;2.80;;;29.80;95.60;;;;;;4966369;28;20465;-83
2022/08/03 10:33:44;;;;;;;5.23;3.10;;;29.80;95.60;;;;;;4983689;28;20450;-82
2022/08/03 10:36:24;;;;;;;4.10;3.17;;;29.90;95.60;;;;;;4965270;28;20453;-83
2022/08/03 10:38:53;;;;;;;6.87;3.50;;;30.00;95.40;;;;;;4965633;28;20875;-84
2022/08/03 10:41:24;;;;;;;5.30;3.57;;;30.00;95.40;;;;;;4981624;28;20448;-83
2022/08/03 10:43:58;;;;;;;4.17;2.90;;;30.10;95.20;;;;;;4962836;28;20522;-83
2022/08/03 10:46:28;;;;;;;4.80;3.13;;;30.10;95.00;;;;;;4981874;28;20453;-83
2022/08/03 10:48:57;;;;;;;8.13;3.00;;;30.10;95.00;;;;;;4965568;28;20545;-83
2022/08/03 10:51:30;;;;;;;7.73;4.37;;;30.20;94.90;;;;;;4967127;28;20478;-83
2022/08/03 10:53:59;;;;;;;6.30;3.40;;;30.20;94.90;;;;;;4968573;28;20550;-84
2022/08/03 11:00:03;;;;;;;7.27;3.70;;;30.40;94.50;;;;;;4973965;28;20480;-84
2022/08/03 11:03:10;;;;;;;5.60;2.90;;;30.40;94.10;;;;;;4971951;28;20448;-83
2022/08/03 11:05:41;;;;;;;6.27;3.10;;;30.40;94.10;;;;;;4986677;28;20422;-82
2022/08/03 11:08:27;;;;;;;6.87;3.07;;;30.50;94.00;;;;;;4968819;28;20446;-83
2022/08/03 11:10:57;;;;;;;5.00;3.27;;;30.50;93.90;;;;;;4965236;28;20450;-82
2022/08/03 11:13:30;;;;;;;5.50;2.77;;;30.60;93.70;;;;;;4963892;28;20535;-84
2022/08/03 11:16:02;;;;;;;5.20;2.93;;;30.60;93.70;;;;;;4960749;28;20505;-84
2022/08/03 11:18:35;;;;;;;5.03;3.10;;;30.60;93.80;;;;;;4960559;28;20513;-83
2022/08/03 11:21:03;;;;;;;5.07;3.20;;;30.70;93.90;;;;;;4960811;28;21038;-83
2022/08/03 11:23:49;;;;;;;7.50;3.67;;;30.70;93.70;;;;;;4981419;28;21022;-84
2022/08/03 11:26:33;;;;;;;5.93;2.90;;;30.80;93.40;;;;;;4960695;28;20449;-83
2022/08/03 11:29:27;;;;;;;5.13;3.00;;;30.80;93.20;;;;;;4964249;28;20485;-84
2022/08/03 11:31:55;;;;;;;4.53;2.00;;;30.90;93.10;;;;;;4964589;28;20490;-83
2022/08/03 11:34:23;;;;;;;4.50;2.63;;;30.90;93.00;;;;;;4964065;28;20477;-83
2022/08/03 11:37:21;;;;;;;5.23;2.33;;;30.90;92.60;;;;;;4981402;28;20445;-83
2022/08/03 11:39:55;;;;;;;7.27;2.60;;;30.90;92.40;;;;;;4959411;28;20488;-83
2022/08/03 11:42:47;;;;;;;6.17;2.10;;;31.00;92.50;;;;;;4982368;28;20430;-82
2022/08/03 11:45:15;;;;;;;8.43;3.40;;;31.00;92.40;;;;;;4966225;28;20476;-82
2022/08/03 11:47:44;;;;;;;4.80;2.53;;;31.10;92.30;;;;;;4961505;28;20496;-82
2022/08/03 11:50:20;;;;;;;5.40;2.50;;;31.10;92.10;;;;;;4962721;28;20445;-82
2022/08/03 11:52:49;;;;;;;4.77;2.53;;;31.20;92.00;;;;;;4962779;28;20528;-83
2022/08/03 11:55:20;;;;;;;5.73;3.07;;;31.20;91.80;;;;;;4979563;28;20508;-83
2022/08/03 11:57:49;;;;;;;5.70;2.23;;;31.20;91.80;;;;;;4963561;28;20450;-83
2022/08/03 12:00:37;;;;;;;5.13;2.90;;;31.20;91.90;;;;;;4964384;28;20473;-82
2022/08/03 12:03:09;;;;;;;5.10;2.50;;;31.20;91.90;;;;;;4980621;28;20433;-83
2022/08/03 12:05:44;;;;;;;5.27;2.20;;;31.20;91.70;;;;;;4981320;28;20419;-83
2022/08/03 12:08:31;;;;;;;8.30;2.87;;;31.20;91.60;;;;;;4970211;28;20843;-83
2022/08/03 12:11:05;;;;;;;5.07;3.10;;;31.30;91.60;;;;;;4968043;28;20479;-83
2022/08/03 12:13:38;;;;;;;6.27;2.57;;;31.30;91.70;;;;;;4966786;28;20480;-84
2022/08/03 12:16:28;;;;;;;7.20;2.70;;;31.40;91.60;;;;;;4969305;28;20437;-83
2022/08/03 12:18:57;;;;;;;4.70;2.40;;;31.40;91.50;;;;;;4988687;28;20520;-83
2022/08/03 12:21:26;;;;;;;7.80;3.10;;;31.40;91.30;;;;;;4985450;28;20465;-83
2022/08/03 12:23:57;;;;;;;4.70;2.33;;;31.40;91.20;;;;;;5003364;28;20433;-81
2022/08/03 12:26:28;;;;;;;5.40;2.27;;;31.40;91.30;;;;;;4986958;28;20425;-83
2022/08/03 12:28:57;;;;;;;3.93;2.60;;;31.50;91.30;;;;;;4986920;28;20450;-81
2022/08/03 12:31:26;;;;;;;6.03;2.80;;;31.50;91.20;;;;;;4986929;28;21287;-82
2022/08/03 12:34:00;;;;;;;4.47;2.00;;;31.60;91.20;;;;;;4986617;28;20473;-81
2022/08/03 12:36:30;;;;;;;6.30;2.20;;;31.60;91.30;;;;;;4986728;28;20449;-82
2022/08/03 12:39:00;;;;;;;3.63;2.50;;;31.60;91.40;;;;;;5003222;28;20457;-82
2022/08/03 12:41:34;;;;;;;6.57;2.27;;;31.70;91.40;;;;;;4995919;28;20436;-83
2022/08/03 12:44:03;;;;;;;7.57;3.00;;;31.70;91.20;;;;;;4973158;28;20469;-84
2022/08/03 12:46:33;;;;;;;5.27;2.60;;;31.80;91.50;;;;;;4971248;28;20520;-84
2022/08/03 12:49:05;;;;;;;5.57;2.33;;;31.80;91.10;;;;;;4970616;28;20525;-82
2022/08/03 12:51:35;;;;;;;7.47;2.70;;;31.80;91.00;;;;;;4967319;28;20446;-82
2022/08/03 12:54:04;;;;;;;6.60;2.60;;;31.90;90.90;;;;;;4966440;28;20544;-83
2022/08/03 12:56:34;;;;;;;4.23;2.73;;;31.90;90.50;;;;;;4984008;28;20437;-82
2022/08/03 12:59:23;;;;;;;5.33;2.13;;;31.90;90.30;;;;;;4986284;28;20477;-82
2022/08/03 13:02:00;;;;;;;5.70;2.50;;;32.00;90.30;;;;;;4967334;28;20449;-83
2022/08/03 13:04:32;;;;;;;6.00;2.17;;;32.00;90.40;;;;;;4969059;28;20469;-83
2022/08/03 13:07:01;;;;;;;7.00;2.23;;;32.00;90.20;;;;;;4987695;28;20477;-83
2022/08/03 13:09:41;;;;;;;6.93;2.30;;;32.10;90.20;;;;;;4968086;28;20449;-82
2022/08/03 13:12:13;;;;;;;4.97;2.23;;;32.10;90.00;;;;;;4984708;28;20473;-83
2022/08/03 13:14:41;;;;;;;5.50;2.60;;;32.20;89.50;;;;;;4984796;28;20804;-84
2022/08/03 13:17:10;;;;;;;7.17;3.63;;;32.20;89.10;;;;;;4968220;28;20453;-83
2022/08/03 13:19:39;;;;;;;5.57;2.80;;;32.20;88.70;;;;;;4970453;28;20815;-82
2022/08/03 13:22:12;;;;;;;3.87;2.20;;;32.20;88.80;;;;;;4969614;28;20457;-82
2022/08/03 13:24:40;;;;;;;6.13;3.00;;;32.30;88.30;;;;;;4968807;28;20536;-82